Startpagina
METAR-TAF:

METAR-TAF

Vliegvelden :

Maastricht Aachen Airport

Maastricht Aken, Nederland

breedte: 50-55N, lengte: 005-47E, hoogte: 114 m

Actueel weer

Dit bericht is 29 minuten geleden gemaakt, om 18:25 UTC
Wind 7 kt uit het oostnoordoosten
Temperatuur 21°C
Vochtigheid 46%
Druk 1015 hPa
Zicht 10 km of meer

METAR: EHBK 191825Z AUTO 07007KT 9999 NCD 21/09 Q1015 NOSIG

Tijdstip: 20:54 (18:54 UTC)

Verwachting

Dit bericht is 2 uur en het 12 minuten geleden gemaakt, om 16:42 UTC
Verwachting geldig van 19 om 18 UTC tot 20 om 24 UTC
Wind 7 kt uit het oosten
Zicht 10 km of meer
geen wolken onder 1500 m en geen cumulonimbus

TAF: EHBK 191642Z 1918/2024 08007KT CAVOK

Waarnemingen en weersverwachtingen van meer dan 4000 vliegvelden (METAR en TAF).

De beschikbare stations zijn de gele en rode punten op de kaart.

Ga met uw muis naar het station om de naam te zien.

Klik dan om waarnemingen en weersverwachtingen te zien.

kaart wijzigen: klik op de groene knoppen met een zwart kruis om in te zoomen, op de groene knop met een streepje om uit te zoomen of op de groene pijlen voor aangrenzende kaarten.


METAR-TAF: